PWSweather.com
Personal Weather Stations
Station Observations
KWABLAIN13
Ptl Weather, Blaine, WA

Ptl WeatherBlaine, WA

Lat: 48.997393, Lon: -122.748614

Elevation: 57

Station Type: Davis Advantage Pro 2

http://www.ptlnet.net

Latest ConditionsUpdated 3:50:00 PM PDT Wednesday, Oct 16, 2019
Currently Today's Max Today's Min Today's Average
Temperature 57.6°F14.2°C 59.6°F15.3°C 49.4°F9.7°C 52.5°F11.4°C
Dew Point 53.1°F11.7°C 53.1°F11.7°C 47.9°F8.8°C 49.5°F9.7°C
Winds 8.0 mph SW12.9 kmh SW 15.0 mph -24.1 kmh - - 3.1 mph 5.0 kmh
Wind Gusts 18.0 mph29.0 kmh 26.0 mph41.8 kmh - -
Humidity 85% 95% 78% 90%
Pressure 29.58 in1001.7 mb 29.86 in1011.2 mb 29.58 in1001.7 mb -
Hour Temp Dew Point Humidity Winds Wind Gusts Pressure Precip Precip Rate Daily Precip Total
03:50 PM 57.6°F14.2°C 53.1°F11.7°C 85% 8.0 mph SW12.9 kmh SW 18.0 mph29.0 kmh 29.58 in1001.7 mb 0.01 in0.3 mm 0.10 in2.5 mm 0.14 in3.6 mm
03:44 PM 57.8°F14.3°C 53.0°F11.7°C 84% 15.0 mph SSW24.1 kmh SSW 18.0 mph29.0 kmh 29.58 in1001.7 mb 0.00 in0.0 mm 0.00 in0.0 mm 0.13 in3.3 mm
03:30 PM 58.3°F14.6°C 52.8°F11.6°C 82% 10.0 mph SW16.1 kmh SW 23.0 mph37.0 kmh 29.58 in1001.7 mb 0.00 in0.0 mm 0.00 in0.0 mm 0.13 in3.3 mm
03:25 PM 58.4°F14.7°C 52.9°F11.6°C 82% 7.0 mph S11.3 kmh S 23.0 mph37.0 kmh 29.58 in1001.7 mb 0.00 in0.0 mm 0.00 in0.0 mm 0.13 in3.3 mm
03:10 PM 58.5°F14.7°C 52.7°F11.5°C 81% 4.0 mph SSE6.4 kmh SSE 5.0 mph8.0 kmh 29.58 in1001.7 mb 0.00 in0.0 mm 0.00 in0.0 mm 0.13 in3.3 mm
03:05 PM 58.6°F14.8°C 52.8°F11.6°C 81% 5.0 mph SE8.0 kmh SE 19.0 mph30.6 kmh 29.58 in1001.7 mb 0.00 in0.0 mm 0.00 in0.0 mm 0.13 in3.3 mm
02:50 PM 58.6°F14.8°C 52.5°F11.4°C 80% 13.0 mph SSE20.9 kmh SSE 17.0 mph27.4 kmh 29.58 in1001.7 mb 0.00 in0.0 mm 0.00 in0.0 mm 0.13 in3.3 mm
02:45 PM 58.6°F14.8°C 52.5°F11.4°C 80% 12.0 mph SSW19.3 kmh SSW 17.0 mph27.4 kmh 29.58 in1001.7 mb 0.00 in0.0 mm 0.00 in0.0 mm 0.13 in3.3 mm
02:30 PM 58.8°F14.9°C 52.3°F11.3°C 79% 7.0 mph SE11.3 kmh SE 18.0 mph29.0 kmh 29.59 in1002.0 mb 0.00 in0.0 mm 0.00 in0.0 mm 0.13 in3.3 mm
02:25 PM 58.9°F14.9°C 52.4°F11.3°C 79% 10.0 mph SE16.1 kmh SE 18.0 mph29.0 kmh 29.59 in1002.0 mb 0.00 in0.0 mm 0.00 in0.0 mm 0.13 in3.3 mm
02:14 PM 59.4°F15.2°C 52.6°F11.4°C 78% 9.0 mph S14.5 kmh S 26.0 mph41.8 kmh 29.59 in1002.0 mb 0.00 in0.0 mm 0.00 in0.0 mm 0.13 in3.3 mm
02:00 PM 59.6°F15.3°C 52.7°F11.5°C 78% 13.0 mph SE20.9 kmh SE 21.0 mph33.8 kmh 29.60 in1002.4 mb 0.00 in0.0 mm 0.00 in0.0 mm 0.13 in3.3 mm
01:55 PM 59.3°F15.2°C 52.8°F11.6°C 79% 10.0 mph S16.1 kmh S 19.0 mph30.6 kmh 29.60 in1002.4 mb 0.00 in0.0 mm 0.00 in0.0 mm 0.13 in3.3 mm
01:40 PM 58.4°F14.7°C 52.6°F11.4°C 81% 4.0 mph SE6.4 kmh SE 10.0 mph16.1 kmh 29.61 in1002.7 mb 0.00 in0.0 mm 0.00 in0.0 mm 0.13 in3.3 mm
01:35 PM 58.1°F14.5°C 52.3°F11.3°C 81% 2.0 mph S3.2 kmh S 10.0 mph16.1 kmh 29.61 in1002.7 mb 0.00 in0.0 mm 0.00 in0.0 mm 0.13 in3.3 mm
01:20 PM 57.6°F14.2°C 51.8°F11.0°C 81% 6.0 mph SE9.7 kmh SE 6.0 mph9.7 kmh 29.62 in1003.0 mb 0.00 in0.0 mm 0.00 in0.0 mm 0.13 in3.3 mm
01:15 PM 57.5°F14.2°C 51.7°F10.9°C 81% 8.0 mph SSE12.9 kmh SSE 11.0 mph17.7 kmh 29.62 in1003.0 mb 0.00 in0.0 mm 0.00 in0.0 mm 0.13 in3.3 mm
01:00 PM 57.3°F14.1°C 51.5°F10.8°C 81% 6.0 mph SSE9.7 kmh SSE 7.0 mph11.3 kmh 29.63 in1003.4 mb 0.00 in0.0 mm 0.00 in0.0 mm 0.13 in3.3 mm
12:54 PM 57.1°F13.9°C 51.3°F10.7°C 81% 5.0 mph ESE8.0 kmh ESE 15.0 mph24.1 kmh 29.63 in1003.4 mb 0.00 in0.0 mm 0.00 in0.0 mm 0.13 in3.3 mm
12:40 PM 56.8°F13.8°C 51.0°F10.6°C 81% 1.0 mph E1.6 kmh E 2.0 mph3.2 kmh 29.64 in1003.7 mb 0.00 in0.0 mm 0.00 in0.0 mm 0.13 in3.3 mm
12:34 PM 56.7°F13.7°C 51.3°F10.7°C 82% 5.0 mph SE8.0 kmh SE 13.0 mph20.9 kmh 29.64 in1003.7 mb 0.00 in0.0 mm 0.00 in0.0 mm 0.13 in3.3 mm
12:20 PM 56.5°F13.6°C 51.1°F10.6°C 82% 10.0 mph SE16.1 kmh SE 17.0 mph27.4 kmh 29.65 in1004.1 mb 0.00 in0.0 mm 0.00 in0.0 mm 0.13 in3.3 mm
12:15 PM 56.5°F13.6°C 51.1°F10.6°C 82% 3.0 mph SSE4.8 kmh SSE 17.0 mph27.4 kmh 29.65 in1004.1 mb 0.00 in0.0 mm 0.00 in0.0 mm 0.13 in3.3 mm
11:59 AM 56.6°F13.7°C 50.9°F10.5°C 81% 7.0 mph E11.3 kmh E 13.0 mph20.9 kmh 29.66 in1004.4 mb 0.00 in0.0 mm 0.00 in0.0 mm 0.13 in3.3 mm
11:55 AM 56.6°F13.7°C 50.9°F10.5°C 81% 4.0 mph SE6.4 kmh SE 12.0 mph19.3 kmh 29.66 in1004.4 mb 0.00 in0.0 mm 0.00 in0.0 mm 0.13 in3.3 mm
11:39 AM 56.8°F13.8°C 51.0°F10.6°C 81% 3.0 mph E4.8 kmh E 18.0 mph29.0 kmh 29.67 in1004.7 mb 0.00 in0.0 mm 0.00 in0.0 mm 0.13 in3.3 mm
11:35 AM 56.8°F13.8°C 50.7°F10.4°C 80% 5.0 mph SE8.0 kmh SE 10.0 mph16.1 kmh 29.67 in1004.7 mb 0.00 in0.0 mm 0.00 in0.0 mm 0.13 in3.3 mm
11:20 AM 56.7°F13.7°C 50.6°F10.3°C 80% 2.0 mph NE3.2 kmh NE 2.0 mph3.2 kmh 29.68 in1005.1 mb 0.00 in0.0 mm 0.00 in0.0 mm 0.13 in3.3 mm
11:15 AM 56.7°F13.7°C 50.6°F10.3°C 80% 4.0 mph SE6.4 kmh SE 12.0 mph19.3 kmh 29.68 in1005.1 mb 0.00 in0.0 mm 0.00 in0.0 mm 0.13 in3.3 mm
11:00 AM 56.4°F13.6°C 50.7°F10.4°C 81% 9.0 mph SE14.5 kmh SE 16.0 mph25.7 kmh 29.68 in1005.1 mb 0.00 in0.0 mm 0.00 in0.0 mm 0.13 in3.3 mm
10:54 AM 56.2°F13.4°C 50.5°F10.3°C 81% 11.0 mph SE17.7 kmh SE 11.0 mph17.7 kmh 29.68 in1005.1 mb 0.00 in0.0 mm 0.00 in0.0 mm 0.13 in3.3 mm
10:50 AM 55.9°F13.3°C 50.5°F10.3°C 82% 5.0 mph S8.0 kmh S 19.0 mph30.6 kmh 29.68 in1005.1 mb 0.00 in0.0 mm 0.00 in0.0 mm 0.13 in3.3 mm
10:45 AM 55.5°F13.1°C 50.4°F10.2°C 83% 4.0 mph SE6.4 kmh SE 19.0 mph30.6 kmh 29.68 in1005.1 mb 0.00 in0.0 mm 0.00 in0.0 mm 0.13 in3.3 mm
10:30 AM 53.2°F11.8°C 50.7°F10.4°C 91% 5.0 mph SE8.0 kmh SE 18.0 mph29.0 kmh 29.68 in1005.1 mb 0.00 in0.0 mm 0.00 in0.0 mm 0.13 in3.3 mm
10:25 AM 52.4°F11.3°C 50.4°F10.2°C 93% 4.0 mph SE6.4 kmh SE 18.0 mph29.0 kmh 29.68 in1005.1 mb 0.00 in0.0 mm 0.00 in0.0 mm 0.13 in3.3 mm
10:09 AM 51.2°F10.7°C 49.8°F9.9°C 95% 1.0 mph SE1.6 kmh SE 3.0 mph4.8 kmh 29.69 in1005.4 mb 0.00 in0.0 mm 0.00 in0.0 mm 0.13 in3.3 mm
10:05 AM 51.1°F10.6°C 49.4°F9.7°C 94% Calm Calm 3.0 mph4.8 kmh 29.69 in1005.4 mb 0.00 in0.0 mm 0.00 in0.0 mm 0.13 in3.3 mm
09:50 AM 50.7°F10.4°C 49.3°F9.6°C 95% Calm Calm 3.0 mph4.8 kmh 29.70 in1005.8 mb 0.00 in0.0 mm 0.00 in0.0 mm 0.13 in3.3 mm
09:45 AM 50.6°F10.3°C 49.2°F9.6°C 95% Calm Calm 1.0 mph1.6 kmh 29.70 in1005.8 mb 0.00 in0.0 mm 0.00 in0.0 mm 0.13 in3.3 mm
09:29 AM 50.4°F10.2°C 49.0°F9.4°C 95% 1.0 mph N1.6 kmh N 3.0 mph4.8 kmh 29.70 in1005.8 mb 0.00 in0.0 mm 0.00 in0.0 mm 0.13 in3.3 mm
09:25 AM 50.3°F10.2°C 48.9°F9.4°C 95% Calm Calm 3.0 mph4.8 kmh 29.70 in1005.8 mb 0.00 in0.0 mm 0.00 in0.0 mm 0.13 in3.3 mm
09:10 AM 50.1°F10.1°C 48.7°F9.3°C 95% Calm Calm -- 29.71 in1006.1 mb 0.00 in0.0 mm 0.00 in0.0 mm 0.13 in3.3 mm
09:05 AM 50.1°F10.1°C 48.7°F9.3°C 95% Calm Calm 1.0 mph1.6 kmh 29.71 in1006.1 mb 0.00 in0.0 mm 0.00 in0.0 mm 0.13 in3.3 mm
08:50 AM 50.1°F10.1°C 48.7°F9.3°C 95% 1.0 mph ENE1.6 kmh ENE 1.0 mph1.6 kmh 29.71 in1006.1 mb 0.00 in0.0 mm 0.00 in0.0 mm 0.13 in3.3 mm
08:45 AM 50.0°F10.0°C 48.6°F9.2°C 95% Calm Calm 2.0 mph3.2 kmh 29.71 in1006.1 mb 0.00 in0.0 mm 0.00 in0.0 mm 0.13 in3.3 mm
08:30 AM 50.0°F10.0°C 48.6°F9.2°C 95% 1.0 mph ENE1.6 kmh ENE 2.0 mph3.2 kmh 29.72 in1006.4 mb 0.00 in0.0 mm 0.00 in0.0 mm 0.13 in3.3 mm
08:25 AM 49.9°F9.9°C 48.5°F9.2°C 95% 2.0 mph ESE3.2 kmh ESE 2.0 mph3.2 kmh 29.73 in1006.8 mb 0.00 in0.0 mm 0.00 in0.0 mm 0.13 in3.3 mm
08:09 AM 49.9°F9.9°C 48.5°F9.2°C 95% Calm Calm 3.0 mph4.8 kmh 29.72 in1006.4 mb 0.01 in0.3 mm 0.00 in0.0 mm 0.13 in3.3 mm
08:05 AM 49.8°F9.9°C 48.4°F9.1°C 95% Calm Calm 1.0 mph1.6 kmh 29.73 in1006.8 mb 0.01 in0.3 mm 0.00 in0.0 mm 0.13 in3.3 mm
07:50 AM 49.8°F9.9°C 48.4°F9.1°C 95% Calm Calm -- 29.73 in1006.8 mb 0.02 in0.5 mm 0.00 in0.0 mm 0.13 in3.3 mm
07:44 AM 49.7°F9.8°C 48.3°F9.1°C 95% Calm Calm 2.0 mph3.2 kmh 29.72 in1006.4 mb 0.02 in0.5 mm 0.00 in0.0 mm 0.13 in3.3 mm
07:30 AM 49.6°F9.8°C 48.2°F9.0°C 95% Calm Calm 3.0 mph4.8 kmh 29.72 in1006.4 mb 0.03 in0.8 mm 0.00 in0.0 mm 0.13 in3.3 mm
07:25 AM 49.5°F9.7°C 48.1°F8.9°C 95% Calm Calm 3.0 mph4.8 kmh 29.73 in1006.8 mb 0.03 in0.8 mm 0.00 in0.0 mm 0.13 in3.3 mm
07:10 AM 49.4°F9.7°C 48.0°F8.9°C 95% 1.0 mph N1.6 kmh N 1.0 mph1.6 kmh 29.73 in1006.8 mb 0.03 in0.8 mm 0.00 in0.0 mm 0.13 in3.3 mm
07:04 AM 49.4°F9.7°C 48.0°F8.9°C 95% Calm Calm 2.0 mph3.2 kmh 29.73 in1006.8 mb 0.03 in0.8 mm 0.03 in0.8 mm 0.13 in3.3 mm
06:50 AM 49.5°F9.7°C 48.1°F8.9°C 95% 1.0 mph NE1.6 kmh NE 3.0 mph4.8 kmh 29.74 in1007.1 mb 0.01 in0.3 mm 0.00 in0.0 mm 0.11 in2.8 mm
06:45 AM 49.5°F9.7°C 48.1°F8.9°C 95% Calm Calm 1.0 mph1.6 kmh 29.74 in1007.1 mb 0.01 in0.3 mm 0.00 in0.0 mm 0.11 in2.8 mm
06:30 AM 49.5°F9.7°C 48.1°F8.9°C 95% 1.0 mph NE1.6 kmh NE 6.0 mph9.7 kmh 29.75 in1007.5 mb 0.01 in0.3 mm 0.00 in0.0 mm 0.11 in2.8 mm
06:25 AM 49.5°F9.7°C 48.1°F8.9°C 95% 2.0 mph NE3.2 kmh NE 4.0 mph6.4 kmh 29.74 in1007.1 mb 0.01 in0.3 mm 0.04 in1.0 mm 0.11 in2.8 mm
06:10 AM 49.5°F9.7°C 48.1°F8.9°C 95% 1.0 mph N1.6 kmh N 2.0 mph3.2 kmh 29.74 in1007.1 mb 0.00 in0.0 mm 0.00 in0.0 mm 0.10 in2.5 mm
06:05 AM 49.5°F9.7°C 48.1°F8.9°C 95% Calm Calm 2.0 mph3.2 kmh 29.74 in1007.1 mb 0.00 in0.0 mm 0.00 in0.0 mm 0.10 in2.5 mm
05:50 AM 49.6°F9.8°C 48.2°F9.0°C 95% 1.0 mph NE1.6 kmh NE 1.0 mph1.6 kmh 29.74 in1007.1 mb 0.00 in0.0 mm 0.00 in0.0 mm 0.10 in2.5 mm
05:45 AM 49.6°F9.8°C 48.0°F8.9°C 94% Calm Calm 2.0 mph3.2 kmh 29.74 in1007.1 mb 0.00 in0.0 mm 0.00 in0.0 mm 0.10 in2.5 mm
05:29 AM 49.6°F9.8°C 48.0°F8.9°C 94% 1.0 mph NNE1.6 kmh NNE 5.0 mph8.0 kmh 29.75 in1007.5 mb 0.00 in0.0 mm 0.00 in0.0 mm 0.10 in2.5 mm
05:25 AM 49.6°F9.8°C 48.0°F8.9°C 94% 2.0 mph NNW3.2 kmh NNW 5.0 mph8.0 kmh 29.75 in1007.5 mb 0.00 in0.0 mm 0.00 in0.0 mm 0.10 in2.5 mm
05:10 AM 49.6°F9.8°C 48.0°F8.9°C 94% 7.0 mph NE11.3 kmh NE 7.0 mph11.3 kmh 29.75 in1007.5 mb 0.00 in0.0 mm 0.00 in0.0 mm 0.10 in2.5 mm
05:05 AM 49.6°F9.8°C 48.0°F8.9°C 94% Calm Calm 6.0 mph9.7 kmh 29.75 in1007.5 mb 0.02 in0.5 mm 0.00 in0.0 mm 0.10 in2.5 mm
04:50 AM 49.7°F9.8°C 48.1°F8.9°C 94% 1.0 mph NE1.6 kmh NE 1.0 mph1.6 kmh 29.76 in1007.8 mb 0.03 in0.8 mm 0.00 in0.0 mm 0.10 in2.5 mm
04:45 AM 49.7°F9.8°C 48.1°F8.9°C 94% 2.0 mph ENE3.2 kmh ENE 6.0 mph9.7 kmh 29.76 in1007.8 mb 0.04 in1.0 mm 0.00 in0.0 mm 0.10 in2.5 mm
04:29 AM 49.7°F9.8°C 48.1°F8.9°C 94% 1.0 mph N1.6 kmh N 3.0 mph4.8 kmh 29.77 in1008.1 mb 0.05 in1.3 mm 0.00 in0.0 mm 0.10 in2.5 mm
04:25 AM 49.7°F9.8°C 48.1°F8.9°C 94% 1.0 mph E1.6 kmh E 2.0 mph3.2 kmh 29.77 in1008.1 mb 0.05 in1.3 mm 0.00 in0.0 mm 0.10 in2.5 mm
04:10 AM 49.8°F9.9°C 48.2°F9.0°C 94% 2.0 mph N3.2 kmh N 11.0 mph17.7 kmh 29.77 in1008.1 mb 0.05 in1.3 mm 0.12 in3.0 mm 0.10 in2.5 mm
04:05 AM 49.8°F9.9°C 47.9°F8.8°C 93% 4.0 mph NE6.4 kmh NE 7.0 mph11.3 kmh 29.77 in1008.1 mb 0.04 in1.0 mm 0.03 in0.8 mm 0.09 in2.3 mm
03:50 AM 49.8°F9.9°C 48.2°F9.0°C 94% 2.0 mph ESE3.2 kmh ESE 4.0 mph6.4 kmh 29.78 in1008.5 mb 0.02 in0.5 mm 0.00 in0.0 mm 0.07 in1.8 mm
03:45 AM 49.8°F9.9°C 48.2°F9.0°C 94% 1.0 mph E1.6 kmh E 3.0 mph4.8 kmh 29.79 in1008.8 mb 0.02 in0.5 mm 0.08 in2.0 mm 0.07 in1.8 mm
03:30 AM 49.8°F9.9°C 47.9°F8.8°C 93% Calm Calm -- 29.81 in1009.5 mb 0.00 in0.0 mm 0.00 in0.0 mm 0.05 in1.3 mm
03:25 AM 49.8°F9.9°C 47.9°F8.8°C 93% Calm Calm 2.0 mph3.2 kmh 29.81 in1009.5 mb 0.00 in0.0 mm 0.00 in0.0 mm 0.05 in1.3 mm
03:10 AM 49.8°F9.9°C 47.9°F8.8°C 93% 1.0 mph ESE1.6 kmh ESE 3.0 mph4.8 kmh 29.81 in1009.5 mb 0.01 in0.3 mm 0.00 in0.0 mm 0.05 in1.3 mm
03:05 AM 49.8°F9.9°C 47.9°F8.8°C 93% Calm Calm 3.0 mph4.8 kmh 29.81 in1009.5 mb 0.01 in0.3 mm 0.00 in0.0 mm 0.05 in1.3 mm
02:50 AM 49.8°F9.9°C 47.9°F8.8°C 93% 1.0 mph E1.6 kmh E 4.0 mph6.4 kmh 29.79 in1008.8 mb 0.02 in0.5 mm 0.00 in0.0 mm 0.05 in1.3 mm
02:45 AM 49.9°F9.9°C 48.0°F8.9°C 93% 2.0 mph ENE3.2 kmh ENE 4.0 mph6.4 kmh 29.79 in1008.8 mb 0.02 in0.5 mm 0.00 in0.0 mm 0.05 in1.3 mm
02:30 AM 49.9°F9.9°C 48.3°F9.1°C 94% 1.0 mph NNW1.6 kmh NNW 4.0 mph6.4 kmh 29.80 in1009.1 mb 0.02 in0.5 mm 0.00 in0.0 mm 0.05 in1.3 mm
02:25 AM 49.9°F9.9°C 48.3°F9.1°C 94% 2.0 mph ENE3.2 kmh ENE 4.0 mph6.4 kmh 29.79 in1008.8 mb 0.02 in0.5 mm 0.06 in1.5 mm 0.05 in1.3 mm
02:15 AM 49.8°F9.9°C 48.2°F9.0°C 94% 1.0 mph ENE1.6 kmh ENE 6.0 mph9.7 kmh 29.80 in1009.1 mb 0.01 in0.3 mm 0.00 in0.0 mm 0.04 in1.0 mm
02:00 AM 49.7°F9.8°C 48.1°F8.9°C 94% 1.0 mph E1.6 kmh E 4.0 mph6.4 kmh 29.81 in1009.5 mb 0.01 in0.3 mm 0.00 in0.0 mm 0.04 in1.0 mm
01:55 AM 49.7°F9.8°C 48.1°F8.9°C 94% 1.0 mph E1.6 kmh E 4.0 mph6.4 kmh 29.82 in1009.8 mb 0.01 in0.3 mm 0.04 in1.0 mm 0.04 in1.0 mm
01:40 AM 49.7°F9.8°C 48.1°F8.9°C 94% 2.0 mph E3.2 kmh E 4.0 mph6.4 kmh 29.82 in1009.8 mb 0.00 in0.0 mm 0.00 in0.0 mm 0.03 in0.8 mm
01:35 AM 49.7°F9.8°C 48.1°F8.9°C 94% 1.0 mph NNE1.6 kmh NNE 4.0 mph6.4 kmh 29.82 in1009.8 mb 0.00 in0.0 mm 0.00 in0.0 mm 0.03 in0.8 mm
01:20 AM 49.6°F9.8°C 48.2°F9.0°C 95% 1.0 mph N1.6 kmh N 1.0 mph1.6 kmh 29.82 in1009.8 mb 0.00 in0.0 mm 0.00 in0.0 mm 0.03 in0.8 mm
01:15 AM 49.6°F9.8°C 48.2°F9.0°C 95% 1.0 mph N1.6 kmh N 4.0 mph6.4 kmh 29.82 in1009.8 mb 0.00 in0.0 mm 0.00 in0.0 mm 0.03 in0.8 mm
01:00 AM 49.6°F9.8°C 48.2°F9.0°C 95% Calm Calm -- 29.83 in1010.2 mb 0.00 in0.0 mm 0.00 in0.0 mm 0.03 in0.8 mm
12:55 AM 49.5°F9.7°C 48.1°F8.9°C 95% 2.0 mph NE3.2 kmh NE 3.0 mph4.8 kmh 29.83 in1010.2 mb 0.00 in0.0 mm 0.00 in0.0 mm 0.03 in0.8 mm
12:40 AM 49.5°F9.7°C 48.1°F8.9°C 95% 1.0 mph N1.6 kmh N 1.0 mph1.6 kmh 29.84 in1010.5 mb 0.00 in0.0 mm 0.00 in0.0 mm 0.03 in0.8 mm
12:35 AM 49.4°F9.7°C 48.0°F8.9°C 95% 1.0 mph N1.6 kmh N 5.0 mph8.0 kmh 29.84 in1010.5 mb 0.00 in0.0 mm 0.00 in0.0 mm 0.03 in0.8 mm
12:20 AM 49.4°F9.7°C 48.0°F8.9°C 95% 2.0 mph N3.2 kmh N 3.0 mph4.8 kmh 29.84 in1010.5 mb 0.00 in0.0 mm 0.00 in0.0 mm 0.03 in0.8 mm
12:15 AM 49.4°F9.7°C 48.0°F8.9°C 95% 2.0 mph N3.2 kmh N 3.0 mph4.8 kmh 29.85 in1010.8 mb 0.00 in0.0 mm 0.00 in0.0 mm 0.03 in0.8 mm
12:00 AM 49.4°F9.7°C 48.0°F8.9°C 95% Calm Calm 9.0 mph14.5 kmh 29.86 in1011.2 mb 0.03 in0.8 mm 0.00 in0.0 mm 0.03 in0.8 mm